Time;durP1;ratioP1;P1;durP2;ratioP2;P2;SDS_P1;SDS_P2;PMS_P1;PMS_P2;Temp;Humidity;BMP_temperature;BMP_pressure;BME280_temperature;BME280_humidity;BME280_pressure;Samples;Min_cycle;Max_cycle;Signal;HPM_P1;HPM_P2
2023/06/22 00:01:19;;;;;;;24.55;8.38;;;;;;;25.89;24.75;99536.88;5094487;28;20048;-64
2023/06/22 00:03:45;;;;;;;15.35;8.05;;;;;;;25.73;25.22;99535.91;5094733;28;20071;-64
2023/06/22 00:06:11;;;;;;;21.90;9.02;;;;;;;25.77;26.14;99515.25;5093804;28;20055;-65
2023/06/22 00:08:37;;;;;;;20.25;7.72;;;;;;;25.77;25.81;99530.78;5094398;28;20047;-65
2023/06/22 00:11:02;;;;;;;15.18;6.90;;;;;;;25.66;25.84;99534.50;5093452;28;20083;-65
2023/06/22 00:13:28;;;;;;;20.90;6.30;;;;;;;25.63;25.52;99535.00;5094728;28;20134;-65
2023/06/22 00:15:54;;;;;;;15.27;5.55;;;;;;;25.71;24.98;99535.34;5076585;28;20059;-64
2023/06/22 00:18:20;;;;;;;16.02;7.20;;;;;;;25.62;26.35;99536.06;5093704;28;20075;-64
2023/06/22 00:20:46;;;;;;;15.00;5.95;;;;;;;25.63;26.07;99532.28;5093574;28;20052;-64
2023/06/22 00:23:17;;;;;;;11.55;4.82;;;;;;;25.58;25.84;99533.06;5093667;28;20138;-64
2023/06/22 00:25:43;;;;;;;14.93;5.72;;;;;;;25.62;26.52;99531.47;5060404;28;20181;-64
2023/06/22 00:28:09;;;;;;;11.73;5.63;;;;;;;25.53;25.76;99522.13;5094218;28;20048;-65
2023/06/22 00:30:35;;;;;;;13.57;5.55;;;;;;;25.44;26.51;99507.34;5093309;28;20051;-64
2023/06/22 00:33:02;;;;;;;14.93;4.93;;;;;;;25.56;25.82;99528.94;5093509;28;20043;-67
2023/06/22 00:35:30;;;;;;;10.00;4.10;;;;;;;25.46;25.69;99526.97;5093017;28;20055;-64
2023/06/22 00:38:03;;;;;;;9.90;4.50;;;;;;;25.39;26.17;99536.38;5093355;28;20071;-64
2023/06/22 00:40:32;;;;;;;12.52;5.00;;;;;;;25.51;26.64;99537.88;5093117;28;20084;-64
2023/06/22 00:42:59;;;;;;;15.65;4.47;;;;;;;25.35;26.56;99535.25;5094384;28;20137;-64
2023/06/22 00:45:25;;;;;;;9.43;4.25;;;;;;;25.50;26.56;99538.97;5076070;28;20055;-65
2023/06/22 00:47:52;;;;;;;17.58;5.20;;;;;;;25.48;26.47;99540.31;5093927;28;20048;-65
2023/06/22 00:50:20;;;;;;;16.00;6.15;;;;;;;25.59;26.84;99539.31;5094250;28;20067;-67
2023/06/22 00:52:58;;;;;;;21.65;6.32;;;;;;;25.84;27.08;99534.09;5076352;28;20052;-65
2023/06/22 00:55:25;;;;;;;15.00;6.18;;;;;;;25.53;27.29;99537.63;5076082;28;20048;-65
2023/06/22 00:57:55;;;;;;;22.52;8.43;;;;;;;25.53;25.87;99543.88;5055541;28;20120;-65
2023/06/22 01:00:24;;;;;;;27.15;11.30;;;;;;;25.75;25.16;99549.28;5039680;28;20143;-65
2023/06/22 01:02:52;;;;;;;27.95;11.25;;;;;;;25.68;25.15;99535.88;5072725;28;20068;-65
2023/06/22 01:05:22;;;;;;;31.10;10.27;;;;;;;25.78;25.79;99540.59;5073237;28;20056;-65
2023/06/22 01:07:54;;;;;;;20.80;9.23;;;;;;;25.52;25.31;99542.25;5040139;28;20143;-65
2023/06/22 01:10:43;;;;;;;21.05;8.68;;;;;;;25.93;24.97;99543.44;5074131;28;20050;-67
2023/06/22 01:13:29;;;;;;;22.85;8.60;;;;;;;25.89;25.01;99545.03;5056903;28;20070;-65
2023/06/22 01:16:02;;;;;;;16.67;8.68;;;;;;;25.87;25.06;99548.03;5072170;28;20043;-65
2023/06/22 01:18:30;;;;;;;21.25;7.82;;;;;;;25.80;24.76;99536.50;5055965;28;20106;-65
2023/06/22 01:20:57;;;;;;;15.30;7.03;;;;;;;25.78;24.48;99552.31;5073708;28;20403;-65
2023/06/22 01:23:48;;;;;;;14.43;7.28;;;;;;;25.93;25.71;99548.88;5074044;28;20080;-65
2023/06/22 01:26:29;;;;;;;15.00;7.50;;;;;;;25.80;25.33;99549.31;5071967;28;20093;-65
2023/06/22 01:28:55;;;;;;;;;;;;;;;25.71;25.49;99548.94;5072252;28;20044;-65
2023/06/22 01:31:26;;;;;;;13.85;6.93;;;;;;;25.59;25.67;99545.56;5055271;28;20339;-65
2023/06/22 01:33:55;;;;;;;25.17;7.10;;;;;;;25.56;26.69;99543.38;5073245;28;20128;-65
2023/06/22 01:36:22;;;;;;;16.85;6.82;;;;;;;25.49;26.39;99541.94;5071942;28;20051;-65
2023/06/22 01:38:49;;;;;;;18.23;7.88;;;;;;;25.45;26.92;99540.81;5071591;28;20036;-65
2023/06/22 01:41:16;;;;;;;17.77;6.70;;;;;;;25.41;27.58;99540.50;5072354;28;20340;-64
2023/06/22 01:43:43;;;;;;;19.75;6.78;;;;;;;25.38;27.53;99545.63;5071058;28;20040;-65
2023/06/22 01:46:09;;;;;;;17.80;6.65;;;;;;;25.44;27.75;99536.44;5038054;28;20135;-65
2023/06/22 01:48:35;;;;;;;16.50;6.72;;;;;;;25.30;27.30;99535.16;5054370;28;20468;-65
2023/06/22 01:51:02;;;;;;;18.42;6.97;;;;;;;25.43;26.38;99542.97;5055345;28;20134;-65
2023/06/22 01:53:28;;;;;;;16.77;6.57;;;;;;;25.24;26.31;99534.31;5054686;28;20098;-65
2023/06/22 01:55:54;;;;;;;16.00;6.90;;;;;;;25.37;26.45;99544.00;5054890;28;20048;-65
2023/06/22 01:58:21;;;;;;;13.40;6.35;;;;;;;25.48;26.21;99548.47;5073922;28;20132;-65
2023/06/22 02:01:03;;;;;;;13.52;6.90;;;;;;;25.75;26.82;99536.50;5058281;28;20460;-65
2023/06/22 02:03:36;;;;;;;30.10;7.00;;;;;;;25.73;27.31;99538.63;5091494;28;20126;-65
2023/06/22 02:06:05;;;;;;;19.35;6.10;;;;;;;25.76;26.09;99532.69;5093220;28;20079;-65
2023/06/22 02:08:41;;;;;;;21.85;10.23;;;;;;;25.86;26.66;99538.19;5074182;28;20078;-65
2023/06/22 02:11:09;;;;;;;18.40;7.00;;;;;;;25.72;27.93;99528.03;5058031;28;20048;-70
2023/06/22 02:13:37;;;;;;;19.50;6.78;;;;;;;25.70;27.03;99546.50;5091325;28;20040;-64
2023/06/22 02:16:03;;;;;;;17.30;7.75;;;;;;;25.68;28.03;99540.50;5074850;28;20036;-65
2023/06/22 02:18:29;;;;;;;28.40;8.55;;;;;;;25.61;28.40;99551.59;5074310;28;20040;-65
2023/06/22 02:20:55;;;;;;;18.70;8.32;;;;;;;25.60;27.88;99549.13;5091094;28;20396;-65
2023/06/22 02:23:22;;;;;;;23.45;7.55;;;;;;;25.57;27.92;99544.19;5090989;28;20040;-65
2023/06/22 02:25:48;;;;;;;19.77;7.65;;;;;;;25.53;27.22;99546.59;5091046;28;20040;-65
2023/06/22 02:28:14;;;;;;;26.75;7.95;;;;;;;25.47;27.23;99534.03;5091039;28;20487;-66
2023/06/22 02:30:40;;;;;;;18.17;7.90;;;;;;;25.50;27.75;99536.25;5074027;28;20070;-65
2023/06/22 02:33:08;;;;;;;17.92;7.20;;;;;;;25.60;27.12;99539.03;5092277;28;20036;-68
2023/06/22 02:35:35;;;;;;;26.80;7.45;;;;;;;25.50;27.66;99517.22;5092122;28;20162;-65
2023/06/22 02:38:03;;;;;;;23.27;7.90;;;;;;;25.70;27.96;99530.16;5091941;28;20096;-65
2023/06/22 02:40:30;;;;;;;18.92;7.28;;;;;;;25.55;27.94;99533.59;5090992;28;20051;-65
2023/06/22 02:43:01;;;;;;;19.75;7.40;;;;;;;25.47;28.15;99511.44;5057795;28;20040;-65
2023/06/22 02:45:27;;;;;;;19.30;6.57;;;;;;;25.50;27.47;99511.75;5092225;28;20040;-67
2023/06/22 02:47:53;;;;;;;20.55;6.32;;;;;;;25.34;27.21;99518.13;5073790;28;20055;-65
2023/06/22 02:50:19;;;;;;;19.70;6.57;;;;;;;25.16;27.57;99509.44;5056669;28;20063;-66
2023/06/22 02:52:45;;;;;;;19.27;6.78;;;;;;;25.23;27.73;99516.38;5090323;28;20074;-65
2023/06/22 02:55:11;;;;;;;17.45;7.47;;;;;;;25.14;27.79;99507.00;5073907;28;20117;-65
2023/06/22 02:57:37;;;;;;;14.07;7.15;;;;;;;25.30;28.31;99511.53;5091347;28;20044;-65
2023/06/22 03:00:16;;;;;;;12.50;5.75;;;;;;;25.44;26.85;99517.41;5079487;28;20051;-65
2023/06/22 03:02:44;;;;;;;13.35;6.22;;;;;;;25.38;26.46;99511.09;5094889;28;20071;-65
2023/06/22 03:05:13;;;;;;;24.92;8.10;;;;;;;25.25;29.46;99502.50;5060289;28;20056;-64
2023/06/22 03:07:41;;;;;;;20.33;7.85;;;;;;;25.49;29.31;99514.75;5083632;28;20043;-67
2023/06/22 03:10:11;;;;;;;20.42;7.20;;;;;;;25.53;28.21;99511.25;5097976;28;20150;-64
2023/06/22 03:12:38;;;;;;;18.63;7.13;;;;;;;25.38;28.00;99510.28;5047932;28;20137;-64
2023/06/22 03:15:06;;;;;;;26.95;7.85;;;;;;;25.67;28.40;99517.91;5063830;28;20286;-66
2023/06/22 03:17:32;;;;;;;23.20;7.78;;;;;;;25.25;28.80;99519.63;5080778;28;20071;-66
2023/06/22 03:19:57;;;;;;;17.50;8.32;;;;;;;24.94;29.01;99512.19;5097420;28;20129;-67
2023/06/22 03:22:23;;;;;;;16.45;7.88;;;;;;;24.83;27.94;99516.69;5100099;28;20051;-67
2023/06/22 03:24:49;;;;;;;23.90;8.75;;;;;;;24.86;28.09;99507.22;5082854;28;20046;-66
2023/06/22 03:27:15;;;;;;;18.17;8.48;;;;;;;24.95;28.28;99504.88;5080813;28;20043;-66
2023/06/22 03:29:40;;;;;;;16.02;8.10;;;;;;;24.98;27.84;99507.91;5097844;28;20040;-66
2023/06/22 03:32:06;;;;;;;19.10;8.27;;;;;;;24.93;28.09;99513.28;5047358;28;20071;-66
2023/06/22 03:34:38;;;;;;;19.92;8.68;;;;;;;25.01;28.23;99512.00;5063847;28;20040;-66
2023/06/22 03:37:04;;;;;;;18.65;8.52;;;;;;;24.99;28.37;99506.03;5081623;28;20056;-67
2023/06/22 03:39:31;;;;;;;18.23;8.55;;;;;;;25.05;28.54;99502.28;5097293;28;20143;-66
2023/06/22 03:41:57;;;;;;;19.88;8.90;;;;;;;25.20;28.47;99495.09;5097934;28;20055;-67
2023/06/22 03:44:23;;;;;;;17.40;9.13;;;;;;;25.13;28.46;99499.91;5080447;28;20044;-67
2023/06/22 03:46:49;;;;;;;18.63;8.73;;;;;;;25.02;28.64;99498.16;5063692;28;20188;-68
2023/06/22 03:49:18;;;;;;;21.60;8.45;;;;;;;25.14;28.79;99498.03;5080496;28;20048;-69
2023/06/22 03:51:44;;;;;;;19.38;8.75;;;;;;;25.10;28.69;99496.88;5052603;28;20058;-67
2023/06/22 03:54:09;;;;;;;18.30;8.25;;;;;;;25.01;29.10;99491.09;5061164;28;20099;-67
2023/06/22 03:56:35;;;;;;;16.40;8.52;;;;;;;25.01;29.39;99477.50;5070127;28;20033;-70
2023/06/22 03:59:01;;;;;;;17.83;7.72;;;;;;;25.39;28.96;99498.31;5052020;28;20036;-68
2023/06/22 04:01:27;;;;;;;20.60;7.95;;;;;;;25.30;28.89;99467.19;5062003;28;20028;-67
2023/06/22 04:03:52;;;;;;;20.83;8.73;;;;;;;25.40;28.98;99479.03;5087018;28;20063;-67
2023/06/22 04:06:18;;;;;;;18.48;9.38;;;;;;;25.47;29.03;99487.81;5063165;28;20068;-68
2023/06/22 04:08:48;;;;;;;18.70;8.75;;;;;;;25.68;29.07;99491.53;5040534;28;20471;-69
2023/06/22 04:11:13;;;;;;;19.77;8.60;;;;;;;25.35;29.28;99486.31;5070399;28;20109;-73
2023/06/22 04:13:39;;;;;;;18.25;8.32;;;;;;;25.33;29.41;99483.03;5069685;28;20098;-72
2023/06/22 04:16:05;;;;;;;23.92;9.82;;;;;;;25.33;29.67;99483.03;5072337;28;20047;-68
2023/06/22 04:18:30;;;;;;;31.20;10.40;;;;;;;25.33;29.91;99483.03;5070500;28;20497;-70
2023/06/22 04:20:56;;;;;;;49.40;13.13;;;;;;;25.44;29.92;99474.72;5071935;28;20162;-71
2023/06/22 04:23:23;;;;;;;30.92;11.30;;;;;;;25.58;29.74;99470.50;5073064;28;20067;-68
2023/06/22 04:25:51;;;;;;;22.20;8.30;;;;;;;25.64;30.16;99480.34;5056208;28;20079;-67
2023/06/22 04:28:16;;;;;;;13.57;8.13;;;;;;;25.48;30.00;99464.97;5073057;28;20418;-68
2023/06/22 04:30:46;;;;;;;42.15;15.30;;;;;;;25.62;30.10;99462.63;5056884;28;20033;-67
2023/06/22 04:33:16;;;;;;;23.25;9.43;;;;;;;25.93;30.25;99480.84;5056600;28;20040;-67
2023/06/22 04:35:45;;;;;;;21.30;7.40;;;;;;;26.04;30.19;99482.59;5056837;28;20106;-67
2023/06/22 04:38:15;;;;;;;17.20;8.32;;;;;;;26.11;30.15;99464.13;5089948;28;20141;-67
2023/06/22 04:40:41;;;;;;;23.23;8.38;;;;;;;26.16;30.08;99475.88;5056759;28;20071;-68
2023/06/22 04:43:09;;;;;;;28.15;9.85;;;;;;;26.39;29.87;99472.75;5072847;28;20438;-67
2023/06/22 04:45:37;;;;;;;18.88;8.43;;;;;;;26.64;30.00;99476.69;5073936;28;20044;-67
2023/06/22 04:48:05;;;;;;;34.05;12.52;;;;;;;26.82;29.44;99478.94;5073469;28;20048;-67
2023/06/22 04:50:31;;;;;;;27.15;7.45;;;;;;;26.78;29.06;99483.28;5072575;28;20119;-67
2023/06/22 04:52:57;;;;;;;50.83;15.18;;;;;;;26.96;28.62;99477.34;5073202;28;20537;-67
2023/06/22 04:55:25;;;;;;;25.23;9.18;;;;;;;27.13;27.50;99475.22;5056085;28;20040;-67
2023/06/22 04:57:51;;;;;;;14.35;6.30;;;;;;;27.33;27.34;99480.75;5056555;28;20460;-69
2023/06/22 05:00:22;;;;;;;25.83;8.82;;;;;;;27.69;26.62;99483.25;5072861;28;20044;-68
2023/06/22 05:02:49;;;;;;;18.35;5.85;;;;;;;27.97;25.42;99480.00;5073080;28;20044;-68
2023/06/22 05:05:16;;;;;;;19.25;7.50;;;;;;;27.88;26.00;99472.63;5073852;28;20152;-67
2023/06/22 05:07:43;;;;;;;15.43;6.75;;;;;;;27.68;26.28;99469.88;5056049;28;20133;-68
2023/06/22 05:10:12;;;;;;;23.88;8.50;;;;;;;28.17;25.87;99475.63;5056035;28;20037;-68
2023/06/22 05:12:39;;;;;;;18.13;5.80;;;;;;;28.40;24.98;99480.47;5072382;28;20572;-68
2023/06/22 05:15:06;;;;;;;25.75;6.10;;;;;;;28.64;25.00;99471.41;5055834;28;20040;-68
2023/06/22 05:17:32;;;;;;;27.48;9.50;;;;;;;28.75;24.60;99481.22;5073208;28;20045;-69
2023/06/22 05:19:58;;;;;;;11.18;4.18;;;;;;;28.78;23.78;99477.91;5073194;28;20041;-69
2023/06/22 05:22:24;;;;;;;11.10;4.80;;;;;;;28.74;23.14;99482.28;5072177;28;20064;-68
2023/06/22 05:24:49;;;;;;;5.25;3.35;;;;;;;28.48;22.65;99469.81;5072789;28;20044;-68
2023/06/22 05:27:15;;;;;;;8.98;4.28;;;;;;;28.52;23.08;99481.84;5073424;28;20458;-68
2023/06/22 05:29:42;;;;;;;10.38;3.88;;;;;;;28.75;22.62;99473.00;5073563;28;20047;-67
2023/06/22 05:32:08;;;;;;;14.93;5.60;;;;;;;28.68;23.29;99475.22;5073438;28;20036;-67
2023/06/22 05:34:34;;;;;;;10.40;4.00;;;;;;;28.75;22.72;99475.75;5055510;28;20056;-68
2023/06/22 05:37:00;;;;;;;6.40;3.30;;;;;;;28.90;22.57;99481.13;5055215;28;20056;-68
2023/06/22 05:39:26;;;;;;;17.02;6.68;;;;;;;29.10;22.53;99470.13;5072985;28;20036;-68
2023/06/22 05:41:52;;;;;;;13.85;4.07;;;;;;;29.34;22.55;99481.19;5055611;28;20074;-69
2023/06/22 05:44:18;;;;;;;17.77;6.55;;;;;;;29.49;22.63;99483.84;5072000;28;20468;-76
2023/06/22 05:46:45;;;;;;;17.00;5.22;;;;;;;29.34;22.45;99476.53;5055193;28;20051;-68
2023/06/22 05:49:13;;;;;;;15.70;4.82;;;;;;;29.69;22.65;99475.50;5054174;28;20048;-68
2023/06/22 05:51:39;;;;;;;9.02;3.55;;;;;;;29.49;22.10;99470.94;5072657;28;20057;-67
2023/06/22 05:54:05;;;;;;;7.30;3.83;;;;;;;29.69;21.78;99467.28;5071534;28;20044;-68
2023/06/22 05:56:31;;;;;;;9.27;4.30;;;;;;;29.80;21.98;99459.81;5072404;28;20040;-67
2023/06/22 05:58:57;;;;;;;7.32;3.40;;;;;;;29.93;21.96;99459.13;5054689;28;20076;-68
2023/06/22 06:01:25;;;;;;;9.07;4.50;;;;;;;30.18;22.00;99469.84;5072300;28;20071;-68
2023/06/22 06:03:52;;;;;;;13.85;3.45;;;;;;;30.64;20.91;99462.78;5055078;28;20060;-67
2023/06/22 06:06:28;;;;;;;15.88;5.38;;;;;;;31.04;21.07;99465.03;5071663;28;20137;-66
2023/06/22 06:08:54;;;;;;;6.82;3.08;;;;;;;30.95;20.48;99475.81;5072290;28;20048;-69
2023/06/22 06:11:21;;;;;;;6.10;3.78;;;;;;;31.14;20.69;99453.88;5071595;28;20044;-68
2023/06/22 06:13:46;;;;;;;7.25;3.35;;;;;;;31.48;20.13;99467.41;5071827;28;20131;-68
2023/06/22 06:16:12;;;;;;;6.00;3.50;;;;;;;31.66;19.57;99467.38;5071921;28;20064;-69
2023/06/22 06:18:38;;;;;;;12.55;3.10;;;;;;;31.81;19.03;99466.31;5055572;28;20051;-71
2023/06/22 06:21:04;;;;;;;9.52;3.70;;;;;;;31.89;19.09;99462.94;5037908;28;20526;-69
2023/06/22 06:23:30;;;;;;;11.57;5.20;;;;;;;31.84;19.42;99468.50;5071001;28;20047;-69
2023/06/22 06:25:55;;;;;;;13.23;3.47;;;;;;;31.68;19.80;99459.66;5071023;28;20075;-69
2023/06/22 06:28:21;;;;;;;10.23;3.67;;;;;;;31.89;19.74;99469.22;5070876;28;20048;-71
2023/06/22 06:30:47;;;;;;;6.75;3.53;;;;;;;31.83;19.75;99466.88;5072551;28;20040;-70
2023/06/22 06:33:13;;;;;;;8.15;3.17;;;;;;;31.60;20.05;99468.59;5071043;28;20056;-69
2023/06/22 06:35:39;;;;;;;7.10;3.38;;;;;;;31.49;20.40;99464.38;5070645;28;20044;-68
2023/06/22 06:38:05;;;;;;;6.75;3.60;;;;;;;31.67;19.75;99468.22;5070555;28;20036;-68
2023/06/22 06:40:30;;;;;;;14.00;4.68;;;;;;;31.81;20.45;99472.66;5053880;28;20484;-66
2023/06/22 06:42:56;;;;;;;3.70;2.78;;;;;;;31.91;19.33;99469.75;5071908;28;20036;-69
2023/06/22 06:45:23;;;;;;;8.70;2.90;;;;;;;32.33;19.67;99465.97;5071930;28;20406;-70
2023/06/22 06:47:50;;;;;;;10.20;3.10;;;;;;;32.53;19.24;99466.41;5071146;28;20062;-69
2023/06/22 06:50:17;;;;;;;7.80;3.22;;;;;;;32.77;18.55;99466.19;5037690;28;20064;-69
2023/06/22 06:52:43;;;;;;;7.45;3.10;;;;;;;32.71;17.95;99474.88;5070884;28;20047;-69
2023/06/22 06:55:12;;;;;;;7.10;3.28;;;;;;;32.73;18.60;99476.19;5071645;28;20041;-69
2023/06/22 06:57:39;;;;;;;9.63;3.80;;;;;;;32.77;18.55;99463.44;5071937;28;20063;-69
2023/06/22 07:00:09;;;;;;;3.83;3.05;;;;;;;33.04;17.71;99466.19;5037645;28;20075;-69
2023/06/22 07:02:36;;;;;;;6.53;2.90;;;;;;;32.93;17.91;99463.97;5070917;28;20350;-69
2023/06/22 07:05:04;;;;;;;5.15;2.92;;;;;;;32.99;18.58;99457.22;5069895;28;20443;-70
2023/06/22 07:07:31;;;;;;;6.43;3.65;;;;;;;33.33;18.38;99452.03;5086842;28;20066;-71
2023/06/22 07:09:57;;;;;;;6.75;2.90;;;;;;;33.47;17.85;99459.16;5055925;28;20495;-70
2023/06/22 07:12:30;;;;;;;7.00;3.17;;;;;;;33.60;17.34;99441.75;5090087;28;20087;-70
2023/06/22 07:15:05;;;;;;;15.05;3.58;;;;;;;34.47;16.53;99455.78;5089087;28;20122;-70
2023/06/22 07:17:32;;;;;;;4.68;3.20;;;;;;;34.45;16.38;99457.19;5056605;28;20072;-68
2023/06/22 07:19:57;;;;;;;8.02;3.50;;;;;;;34.94;16.17;99454.97;5089734;28;20036;-70
2023/06/22 07:22:23;;;;;;;10.82;3.00;;;;;;;35.40;15.53;99451.59;5069548;28;20044;-76
2023/06/22 07:24:49;;;;;;;7.75;3.28;;;;;;;36.08;15.48;99459.03;5069740;28;20053;-69
2023/06/22 07:27:18;;;;;;;10.45;3.78;;;;;;;36.81;14.59;99459.41;5003056;28;20044;-70
2023/06/22 07:29:44;;;;;;;7.03;3.05;;;;;;;37.01;14.13;99452.31;5052855;28;20225;-70
2023/06/22 07:32:10;;;;;;;4.68;3.20;;;;;;;36.88;14.07;99464.44;5052252;28;20135;-69
2023/06/22 07:34:36;;;;;;;8.43;3.25;;;;;;;36.85;14.69;99454.84;5069355;28;20048;-70
2023/06/22 07:37:03;;;;;;;6.55;2.88;;;;;;;36.90;14.25;99454.66;5035833;28;20060;-68
2023/06/22 07:39:28;;;;;;;9.20;3.58;;;;;;;37.28;14.14;99457.34;5052375;28;20048;-71
2023/06/22 07:41:54;;;;;;;10.60;3.08;;;;;;;37.84;13.99;99456.72;5019819;28;20488;-74
2023/06/22 07:44:20;;;;;;;6.47;2.97;;;;;;;38.77;13.17;99455.97;5036532;28;20106;-68
2023/06/22 07:46:46;;;;;;;9.70;3.60;;;;;;;39.96;12.29;99440.97;5054611;28;20036;-70
2023/06/22 07:49:12;;;;;;;5.53;2.92;;;;;;;40.94;11.42;99451.03;5056117;28;20056;-65
2023/06/22 07:51:37;;;;;;;8.60;3.35;;;;;;;41.70;11.00;99448.34;5023063;28;20052;-66
2023/06/22 07:54:03;;;;;;;6.47;2.97;;;;;;;42.37;10.12;99448.84;5069240;28;20060;-65
2023/06/22 07:56:29;;;;;;;3.35;2.95;;;;;;;42.94;9.77;99448.59;5040445;28;20078;-66
2023/06/22 07:58:58;;;;;;;6.38;3.17;;;;;;;43.43;9.50;99446.50;5073607;28;20036;-66
2023/06/22 08:01:23;;;;;;;3.83;2.70;;;;;;;43.18;9.67;99443.41;5071362;28;20586;-66
2023/06/22 08:03:50;;;;;;;8.20;3.13;;;;;;;42.92;9.76;99448.16;5032143;28;20139;-67
2023/06/22 08:06:16;;;;;;;7.38;2.63;;;;;;;43.32;9.28;99451.16;5037796;28;20440;-66
2023/06/22 08:08:42;;;;;;;4.38;2.70;;;;;;;43.68;9.29;99441.25;5040155;28;20044;-66
2023/06/22 08:11:09;;;;;;;4.60;3.28;;;;;;;44.04;9.01;99446.88;5040853;28;20139;-66
2023/06/22 08:13:35;;;;;;;6.28;2.95;;;;;;;43.72;9.16;99425.31;5074970;28;20054;-66
2023/06/22 08:16:00;;;;;;;9.38;2.47;;;;;;;43.88;8.95;99437.91;5041240;28;20048;-66
2023/06/22 08:18:26;;;;;;;6.95;2.85;;;;;;;43.96;8.63;99436.81;5090821;28;20048;-70
2023/06/22 08:20:52;;;;;;;8.00;2.60;;;;;;;43.57;8.85;99426.31;5073797;28;20044;-67
2023/06/22 08:23:18;;;;;;;4.15;2.40;;;;;;;42.72;9.52;99413.13;5073397;28;20551;-66
2023/06/22 08:25:44;;;;;;;8.88;2.80;;;;;;;42.47;9.47;99421.09;5056916;28;20131;-66
2023/06/22 08:28:10;;;;;;;27.23;3.33;;;;;;;41.71;9.91;99427.66;5073091;28;20048;-66
2023/06/22 08:30:36;;;;;;;3.17;2.50;;;;;;;41.88;9.95;99420.00;5056575;28;20047;-67
2023/06/22 08:33:01;;;;;;;6.38;2.80;;;;;;;42.15;9.75;99410.56;5074078;28;20051;-66
2023/06/22 08:35:27;;;;;;;6.18;3.53;;;;;;;42.58;9.90;99408.09;5056859;28;20452;-71
2023/06/22 08:37:54;;;;;;;7.88;2.75;;;;;;;43.01;9.58;99423.56;5056786;28;20046;-67
2023/06/22 08:40:20;;;;;;;10.63;3.00;;;;;;;43.18;9.57;99423.00;5073381;28;20059;-66
2023/06/22 08:42:47;;;;;;;9.00;3.15;;;;;;;43.41;9.15;99422.91;5056433;28;20036;-66
2023/06/22 08:45:13;;;;;;;4.38;2.78;;;;;;;44.25;8.56;99415.47;5040127;28;20102;-66
2023/06/22 08:47:41;;;;;;;10.10;2.55;;;;;;;45.17;8.10;99422.59;5072927;28;20134;-66
2023/06/22 08:50:10;;;;;;;6.65;3.70;;;;;;;46.26;7.95;99412.53;5073002;28;20045;-66
2023/06/22 08:52:37;;;;;;;8.35;2.42;;;;;;;47.62;6.61;99419.94;5039759;28;20075;-66
2023/06/22 08:55:04;;;;;;;9.52;3.10;;;;;;;47.94;6.35;99416.97;5055975;28;20254;-66
2023/06/22 08:57:33;;;;;;;7.00;2.60;;;;;;;48.52;6.46;99416.91;5056405;28;20132;-67
2023/06/22 08:59:59;;;;;;;5.22;2.72;;;;;;;49.71;5.80;99412.00;5072718;28;20075;-68
2023/06/22 09:02:26;;;;;;;7.00;2.75;;;;;;;50.59;5.31;99404.94;5056220;28;20048;-66
2023/06/22 09:04:55;;;;;;;6.45;2.63;;;;;;;51.51;4.87;99392.63;5039295;28;20060;-67
2023/06/22 09:07:23;;;;;;;8.57;2.50;;;;;;;52.31;4.53;99386.31;5056506;28;20139;-67
2023/06/22 09:09:50;;;;;;;4.50;2.30;;;;;;;53.88;3.92;99389.50;5073226;28;20118;-67
2023/06/22 09:12:16;;;;;;;3.58;2.40;;;;;;;55.21;3.17;99401.16;5072448;28;20080;-69
2023/06/22 09:14:42;;;;;;;6.03;2.60;;;;;;;56.54;2.92;99397.00;5072720;28;20044;-68
2023/06/22 09:17:08;;;;;;;8.93;2.50;;;;;;;57.45;2.11;99390.00;5072494;28;20041;-67
2023/06/22 09:19:33;;;;;;;3.22;2.08;;;;;;;57.61;2.01;99381.06;5040290;28;20119;-67
2023/06/22 09:22:00;;;;;;;4.32;2.17;;;;;;;57.04;2.28;99379.31;5073449;28;20074;-66
2023/06/22 09:24:26;;;;;;;4.78;2.30;;;;;;;57.20;2.20;99378.94;5039588;28;20048;-66
2023/06/22 09:26:52;;;;;;;6.70;2.20;;;;;;;56.90;2.13;99377.84;5039085;28;20399;-68
2023/06/22 09:29:18;;;;;;;3.03;2.10;;;;;;;57.47;2.17;99373.97;5055919;28;20045;-67
2023/06/22 09:31:44;;;;;;;4.88;1.85;;;;;;;58.03;1.70;99363.88;5072068;28;20070;-68
2023/06/22 09:34:10;;;;;;;8.48;2.47;;;;;;;58.70;1.36;99375.56;5038883;28;20067;-68
2023/06/22 09:36:36;;;;;;;5.00;2.35;;;;;;;59.10;0.99;99347.19;5073273;28;20051;-67
2023/06/22 09:39:06;;;;;;;6.93;2.08;;;;;;;59.76;1.28;99353.28;5055306;28;20139;-68
2023/06/22 09:41:31;;;;;;;6.95;2.25;;;;;;;58.80;1.27;99349.22;5088863;28;20044;-69
2023/06/22 09:43:57;;;;;;;5.00;2.17;;;;;;;59.14;0.84;99347.78;5072040;28;20106;-67
2023/06/22 09:46:25;;;;;;;4.72;2.20;;;;;;;59.26;1.01;99355.28;5072598;28;20071;-67
2023/06/22 09:48:50;;;;;;;4.75;1.98;;;;;;;59.26;1.21;99352.41;5071549;28;20072;-68
2023/06/22 09:51:16;;;;;;;7.38;2.20;;;;;;;59.32;0.82;99355.41;5055076;28;20082;-68
2023/06/22 09:53:42;;;;;;;5.75;2.13;;;;;;;59.09;1.15;99349.25;5055331;28;20101;-67
2023/06/22 09:56:14;;;;;;;9.32;2.08;;;;;;;59.37;1.36;99352.63;5056024;28;20131;-68
2023/06/22 09:58:42;;;;;;;5.07;2.28;;;;;;;56.82;1.78;99336.63;5072632;28;20060;-67
2023/06/22 10:01:08;;;;;;;6.45;2.30;;;;;;;56.85;2.29;99340.56;5071276;28;20131;-67
2023/06/22 10:03:34;;;;;;;5.53;2.10;;;;;;;57.14;2.04;99338.00;5054525;28;20051;-67
2023/06/22 10:06:00;;;;;;;3.88;2.10;;;;;;;57.44;1.81;99320.63;5038103;28;20074;-67
2023/06/22 10:08:25;;;;;;;7.53;2.40;;;;;;;57.95;1.87;99336.94;5021118;28;20044;-67
2023/06/22 10:10:52;;;;;;;3.80;2.30;;;;;;;58.65;1.15;99336.13;5087875;28;20047;-67
2023/06/22 10:13:18;;;;;;;4.72;2.00;;;;;;;59.01;0.85;99328.03;5087944;28;20130;-67
2023/06/22 10:15:51;;;;;;;3.40;2.05;;;;;;;59.03;0.86;99322.59;5054519;28;20055;-67
2023/06/22 10:18:17;;;;;;;3.80;2.13;;;;;;;59.04;0.93;99314.78;5071979;28;20044;-67
2023/06/22 10:20:44;;;;;;;7.00;2.20;;;;;;;59.15;0.76;99328.53;5071088;28;20392;-67
2023/06/22 10:23:10;;;;;;;7.63;2.40;;;;;;;58.92;0.91;99308.03;5037777;28;20044;-67
2023/06/22 10:25:35;;;;;;;8.85;2.63;;;;;;;58.02;1.29;99314.50;5020981;28;20474;-68
2023/06/22 10:28:01;;;;;;;4.93;2.30;;;;;;;56.91;2.01;99321.53;5071304;28;20059;-68
2023/06/22 10:30:29;;;;;;;5.50;2.10;;;;;;;55.16;2.35;99299.25;5087840;28;20048;-67
2023/06/22 10:32:54;;;;;;;4.72;2.13;;;;;;;55.32;2.64;99286.81;5071121;28;20051;-68
2023/06/22 10:35:20;;;;;;;7.18;2.50;;;;;;;54.80;2.36;99287.56;5071780;28;20052;-67
2023/06/22 10:37:48;;;;;;;5.68;2.35;;;;;;;54.58;2.85;99289.63;5054408;28;20051;-68
2023/06/22 10:40:16;;;;;;;4.15;2.30;;;;;;;53.06;3.47;99287.38;5037371;28;20056;-66
2023/06/22 10:42:43;;;;;;;7.68;2.67;;;;;;;51.49;4.02;99264.81;5071000;28;20476;-67
2023/06/22 10:45:09;;;;;;;4.85;2.50;;;;;;;52.08;4.04;99273.91;5037416;28;20032;-68
2023/06/22 10:47:36;;;;;;;3.72;2.65;;;;;;;52.26;4.23;99245.88;5087480;28;20429;-72
2023/06/22 10:50:02;;;;;;;5.15;2.80;;;;;;;50.20;4.90;99243.69;5071876;28;20131;-67
2023/06/22 10:52:31;;;;;;;5.50;2.67;;;;;;;50.20;4.90;99252.16;5070755;28;20143;-67
2023/06/22 10:54:57;;;;;;;5.80;2.53;;;;;;;49.78;4.95;99253.69;5037455;28;20075;-68
2023/06/22 10:57:25;;;;;;;4.53;2.60;;;;;;;50.13;5.07;99247.44;5087231;28;20553;-67
2023/06/22 10:59:51;;;;;;;9.38;2.90;;;;;;;50.69;4.57;99247.63;5037229;28;20052;-67
2023/06/22 11:02:17;;;;;;;4.72;3.28;;;;;;;51.10;4.64;99248.72;5070701;28;20189;-67
2023/06/22 11:04:43;;;;;;;4.68;3.20;;;;;;;50.15;4.72;99244.97;5021154;28;20519;-67
2023/06/22 11:07:09;;;;;;;4.85;2.67;;;;;;;48.26;5.47;99231.53;5070482;28;20044;-66
2023/06/22 11:09:35;;;;;;;5.25;3.00;;;;;;;46.83;6.24;99230.53;5071101;28;20144;-67
2023/06/22 11:12:01;;;;;;;6.68;2.90;;;;;;;45.68;7.01;99218.31;5070863;28;20086;-66
2023/06/22 11:14:27;;;;;;;3.17;2.70;;;;;;;44.72;7.71;99214.50;5054526;28;20044;-66
2023/06/22 11:16:53;;;;;;;10.63;3.35;;;;;;;44.52;8.27;99218.78;5071218;28;20053;-66
2023/06/22 11:19:20;;;;;;;3.88;3.03;;;;;;;43.63;8.85;99215.75;5054524;28;20044;-66
2023/06/22 11:21:46;;;;;;;6.18;3.00;;;;;;;42.92;9.06;99211.41;5057918;28;20071;-70
2023/06/22 11:24:12;;;;;;;4.80;3.47;;;;;;;42.28;9.82;99220.13;5041414;28;20040;-66
2023/06/22 11:26:38;;;;;;;5.13;2.88;;;;;;;41.89;9.59;99203.97;5058386;28;20446;-66
2023/06/22 11:29:05;;;;;;;7.18;3.17;;;;;;;41.90;9.50;99202.78;5041424;28;20044;-66
2023/06/22 11:31:32;;;;;;;8.05;3.50;;;;;;;42.08;9.62;99207.47;5057638;28;20040;-66